createdAt,value
2022-08-07T00:01:44.565Z,13.30
2022-08-07T00:04:03.499Z,13.28
2022-08-07T00:06:33.521Z,13.23
2022-08-07T00:09:17.026Z,13.19
2022-08-07T00:11:55.585Z,13.16
2022-08-07T00:14:30.339Z,13.15
2022-08-07T00:17:01.962Z,13.11
2022-08-07T00:20:00.240Z,13.08
2022-08-07T00:22:24.559Z,13.06
2022-08-07T00:25:01.858Z,13.03
2022-08-07T00:27:29.448Z,12.99
2022-08-07T00:30:21.678Z,12.97
2022-08-07T00:32:56.651Z,12.93
2022-08-07T00:35:23.554Z,12.87
2022-08-07T00:37:50.889Z,12.90
2022-08-07T00:40:39.029Z,12.89
2022-08-07T00:43:04.388Z,12.84
2022-08-07T00:45:36.603Z,12.81
2022-08-07T00:48:18.221Z,12.77
2022-08-07T00:50:50.503Z,12.77
2022-08-07T00:53:18.238Z,12.68
2022-08-07T00:56:03.180Z,12.61
2022-08-07T00:58:32.442Z,12.55
2022-08-07T01:00:59.451Z,12.53
2022-08-07T01:03:56.734Z,12.53
2022-08-07T01:06:13.510Z,12.53
2022-08-07T01:08:51.394Z,12.49
2022-08-07T01:12:04.688Z,12.48
2022-08-07T01:14:09.028Z,12.48
2022-08-07T01:16:36.794Z,12.49
2022-08-07T01:19:18.062Z,12.47
2022-08-07T01:21:46.942Z,12.44
2022-08-07T01:24:14.321Z,12.37
2022-08-07T01:26:51.528Z,12.35
2022-08-07T01:29:19.193Z,12.33
2022-08-07T01:31:48.275Z,12.28
2022-08-07T01:34:17.727Z,12.23
2022-08-07T01:36:52.543Z,12.19
2022-08-07T01:39:40.702Z,12.17
2022-08-07T01:42:39.491Z,12.15
2022-08-07T01:45:09.853Z,12.09
2022-08-07T01:48:19.231Z,12.04
2022-08-07T01:50:30.396Z,12.01
2022-08-07T01:52:59.982Z,11.98
2022-08-07T01:55:36.457Z,12.01
2022-08-07T01:58:29.597Z,12.01
2022-08-07T02:01:10.046Z,12.05
2022-08-07T02:03:55.904Z,12.05
2022-08-07T02:06:31.229Z,12.06
2022-08-07T02:09:03.819Z,12.03
2022-08-07T02:12:02.607Z,11.98
2022-08-07T02:14:36.014Z,11.91
2022-08-07T02:17:07.319Z,11.90
2022-08-07T02:20:07.444Z,11.89
2022-08-07T02:22:25.912Z,11.89
2022-08-07T02:24:54.615Z,11.93
2022-08-07T02:27:23.931Z,11.97
2022-08-07T02:29:54.172Z,11.98
2022-08-07T02:32:23.247Z,11.94
2022-08-07T02:34:51.798Z,11.97
2022-08-07T02:37:20.445Z,11.99
2022-08-07T02:40:02.036Z,11.96
2022-08-07T02:42:36.597Z,11.93
2022-08-07T02:45:07.594Z,11.89
2022-08-07T02:47:53.120Z,11.82
2022-08-07T02:50:20.772Z,11.78
2022-08-07T02:53:13.862Z,11.73
2022-08-07T02:56:03.198Z,11.68
2022-08-07T02:58:33.794Z,11.60
2022-08-07T03:01:03.142Z,11.57
2022-08-07T03:03:50.209Z,11.55
2022-08-07T03:06:32.075Z,11.50
2022-08-07T03:09:01.669Z,11.43
2022-08-07T03:11:29.503Z,11.42
2022-08-07T03:14:01.746Z,11.40
2022-08-07T03:16:30.422Z,11.41
2022-08-07T03:19:00.854Z,11.42
2022-08-07T03:21:28.148Z,11.42
2022-08-07T03:24:19.927Z,11.43
2022-08-07T03:26:51.192Z,11.41
2022-08-07T03:29:30.954Z,11.44
2022-08-07T03:32:03.189Z,11.46
2022-08-07T03:34:31.965Z,11.48
2022-08-07T03:37:12.100Z,11.44
2022-08-07T03:39:45.930Z,11.41
2022-08-07T03:42:23.318Z,11.43
2022-08-07T03:44:53.459Z,11.45
2022-08-07T03:47:24.476Z,11.40
2022-08-07T03:49:52.435Z,11.35
2022-08-07T03:52:26.835Z,11.34
2022-08-07T03:54:57.179Z,11.37
2022-08-07T03:59:07.309Z,11.38
2022-08-07T04:00:14.815Z,11.40
2022-08-07T04:02:43.086Z,11.43
2022-08-07T04:05:14.044Z,11.46
2022-08-07T04:07:47.784Z,11.49
2022-08-07T04:10:15.517Z,11.49
2022-08-07T04:12:47.208Z,11.46
2022-08-07T04:15:15.856Z,11.45
2022-08-07T04:18:56.215Z,11.41
2022-08-07T04:20:31.044Z,11.41
2022-08-07T04:23:01.185Z,11.45
2022-08-07T04:25:30.241Z,11.50
2022-08-07T04:28:02.629Z,11.55
2022-08-07T04:30:39.286Z,11.59
2022-08-07T04:33:13.852Z,11.60
2022-08-07T04:35:51.055Z,11.62
2022-08-07T04:38:17.931Z,11.62
2022-08-07T04:40:52.970Z,11.62
2022-08-07T04:44:11.933Z,11.62
2022-08-07T04:47:08.379Z,11.61
2022-08-07T04:49:57.476Z,11.59
2022-08-07T04:52:51.100Z,11.58
2022-08-07T04:58:23.669Z,11.53
2022-08-07T04:59:17.434Z,11.49
2022-08-07T05:01:59.525Z,11.50
2022-08-07T05:04:50.462Z,11.52
2022-08-07T05:07:23.288Z,11.54
2022-08-07T05:10:11.764Z,11.62
2022-08-07T05:12:51.510Z,11.65
2022-08-07T05:15:26.228Z,11.72
2022-08-07T05:18:08.706Z,11.77
2022-08-07T05:20:44.952Z,11.87
2022-08-07T05:23:19.658Z,11.98
2022-08-07T05:26:15.639Z,12.36
2022-08-07T05:28:40.524Z,13.98
2022-08-07T05:31:10.969Z,14.49
2022-08-07T05:33:42.908Z,15.90
2022-08-07T05:36:30.476Z,17.80
2022-08-07T05:40:05.025Z,18.71
2022-08-07T05:42:01.159Z,19.81
2022-08-07T05:44:35.275Z,20.54
2022-08-07T05:47:17.856Z,21.33
2022-08-07T05:49:48.615Z,22.08
2022-08-07T05:52:17.674Z,22.77
2022-08-07T05:54:55.986Z,23.15
2022-08-07T05:57:30.497Z,23.52
2022-08-07T06:00:01.705Z,23.71
2022-08-07T06:02:31.655Z,23.87
2022-08-07T06:05:03.628Z,24.02
2022-08-07T06:08:14.818Z,24.28
2022-08-07T06:10:18.080Z,24.45
2022-08-07T06:12:45.473Z,24.60
2022-08-07T06:15:16.086Z,24.60
2022-08-07T06:17:53.552Z,24.75
2022-08-07T06:20:25.475Z,24.71
2022-08-07T06:23:24.688Z,24.84
2022-08-07T06:25:54.834Z,24.66
2022-08-07T06:28:27.407Z,24.38
2022-08-07T06:30:55.370Z,23.12
2022-08-07T06:33:22.691Z,21.66
2022-08-07T06:36:06.611Z,20.82
2022-08-07T06:38:35.906Z,20.15
2022-08-07T06:41:06.807Z,19.79
2022-08-07T06:43:39.455Z,19.50
2022-08-07T06:46:12.389Z,19.17
2022-08-07T06:48:41.848Z,18.98
2022-08-07T06:51:13.013Z,18.99
2022-08-07T06:54:12.064Z,19.02
2022-08-07T06:56:48.594Z,18.94
2022-08-07T07:00:13.059Z,18.95
2022-08-07T07:02:48.758Z,18.90
2022-08-07T07:05:02.777Z,18.92
2022-08-07T07:07:59.858Z,19.05
2022-08-07T07:10:27.088Z,19.06
2022-08-07T07:12:58.600Z,19.00
2022-08-07T07:15:32.550Z,18.90
2022-08-07T07:18:11.851Z,19.03
2022-08-07T07:20:44.914Z,19.19
2022-08-07T07:24:06.490Z,19.30
2022-08-07T07:26:33.482Z,19.50
2022-08-07T07:29:57.248Z,19.54
2022-08-07T07:31:47.779Z,19.68
2022-08-07T07:34:18.049Z,19.83
2022-08-07T07:36:47.789Z,19.91
2022-08-07T07:39:21.023Z,20.06
2022-08-07T07:42:13.099Z,20.16
2022-08-07T07:44:41.809Z,20.34
2022-08-07T07:47:13.988Z,20.46
2022-08-07T07:50:32.736Z,20.57
2022-08-07T07:52:35.687Z,20.64
2022-08-07T07:55:04.131Z,20.64
2022-08-07T07:57:50.410Z,20.65
2022-08-07T08:00:28.931Z,20.80
2022-08-07T08:03:07.979Z,21.04
2022-08-07T08:05:42.715Z,21.18
2022-08-07T08:08:34.983Z,21.21
2022-08-07T08:11:09.309Z,21.33
2022-08-07T08:13:54.189Z,21.56
2022-08-07T08:18:36.530Z,21.50
2022-08-07T08:20:15.955Z,21.49
2022-08-07T08:22:32.630Z,21.79
2022-08-07T08:25:27.117Z,22.01
2022-08-07T08:28:12.812Z,22.03
2022-08-07T08:30:51.353Z,22.13
2022-08-07T08:33:24.703Z,22.35
2022-08-07T08:35:57.121Z,22.55
2022-08-07T08:38:30.064Z,22.74
2022-08-07T08:41:13.231Z,22.76
2022-08-07T08:43:59.205Z,22.84
2022-08-07T08:46:48.998Z,23.07
2022-08-07T08:49:57.169Z,23.24
2022-08-07T08:52:36.227Z,23.14
2022-08-07T08:55:21.164Z,23.31
2022-08-07T08:58:20.360Z,23.60
2022-08-07T09:01:15.763Z,23.76
2022-08-07T09:03:52.929Z,23.63
2022-08-07T09:06:29.221Z,23.84
2022-08-07T09:09:21.042Z,23.86
2022-08-07T09:12:20.208Z,23.67
2022-08-07T09:16:23.338Z,23.65
2022-08-07T09:18:27.947Z,23.98
2022-08-07T09:21:58.159Z,24.32
2022-08-07T09:24:30.561Z,24.56
2022-08-07T09:27:29.272Z,24.46
2022-08-07T09:30:08.736Z,24.72
2022-08-07T09:32:56.850Z,24.69
2022-08-07T09:36:03.506Z,24.59
2022-08-07T09:38:58.960Z,24.79
2022-08-07T09:42:05.822Z,24.77
2022-08-07T09:47:24.395Z,24.77
2022-08-07T09:48:02.897Z,25.07
2022-08-07T09:51:03.032Z,25.37
2022-08-07T09:53:41.373Z,25.25
2022-08-07T09:56:37.262Z,25.43
2022-08-07T09:59:35.773Z,25.62
2022-08-07T10:02:34.616Z,25.86
2022-08-07T10:06:00.030Z,26.15
2022-08-07T10:08:49.598Z,26.06
2022-08-07T10:12:02.067Z,26.24
2022-08-07T10:14:39.009Z,26.56
2022-08-07T10:17:23.533Z,26.69
2022-08-07T10:20:27.726Z,26.35
2022-08-07T10:24:06.480Z,26.50
2022-08-07T10:26:29.848Z,26.72
2022-08-07T10:29:30.421Z,26.67
2022-08-07T10:32:37.049Z,27.00
2022-08-07T10:35:53.493Z,27.02
2022-08-07T10:38:48.636Z,27.38
2022-08-07T10:41:51.399Z,27.53
2022-08-07T10:44:45.165Z,27.26
2022-08-07T10:47:17.910Z,27.08
2022-08-07T10:49:54.291Z,27.23
2022-08-07T10:52:33.622Z,27.42
2022-08-07T10:55:27.116Z,27.32
2022-08-07T10:58:33.404Z,27.43
2022-08-07T11:01:35.178Z,27.70
2022-08-07T11:04:34.657Z,28.10
2022-08-07T11:07:56.092Z,28.45
2022-08-07T11:10:19.942Z,28.39
2022-08-07T11:14:42.127Z,28.42
2022-08-07T11:16:51.310Z,28.19
2022-08-07T11:19:52.864Z,28.40
2022-08-07T11:22:37.239Z,28.39
2022-08-07T11:25:27.772Z,28.69
2022-08-07T11:28:06.254Z,28.82
2022-08-07T11:30:51.263Z,28.90
2022-08-07T11:33:58.356Z,28.90
2022-08-07T11:36:39.272Z,29.13
2022-08-07T11:40:00.771Z,29.45
2022-08-07T11:42:59.117Z,29.67
2022-08-07T11:45:35.365Z,29.92
2022-08-07T11:48:29.452Z,29.67
2022-08-07T11:51:02.722Z,29.47
2022-08-07T11:54:00.716Z,29.46
2022-08-07T11:56:43.733Z,29.56
2022-08-07T12:00:11.261Z,29.49
2022-08-07T12:02:52.177Z,29.67
2022-08-07T12:05:47.367Z,29.75
2022-08-07T12:08:31.709Z,30.29
2022-08-07T12:11:20.821Z,30.38
2022-08-07T12:13:48.740Z,30.43
2022-08-07T12:16:30.737Z,30.23
2022-08-07T12:19:21.508Z,29.99
2022-08-07T12:22:39.327Z,29.94
2022-08-07T12:26:03.422Z,29.92
2022-08-07T12:28:30.868Z,30.19
2022-08-07T12:31:03.689Z,30.30
2022-08-07T12:34:00.749Z,30.30
2022-08-07T12:36:32.979Z,30.08
2022-08-07T12:39:03.362Z,30.56
2022-08-07T12:41:52.285Z,30.33
2022-08-07T12:44:21.589Z,30.41
2022-08-07T12:47:10.198Z,29.93
2022-08-07T12:50:04.976Z,29.90
2022-08-07T12:53:17.842Z,30.48
2022-08-07T12:56:12.396Z,30.43
2022-08-07T12:58:42.940Z,30.46
2022-08-07T13:01:32.895Z,30.07
2022-08-07T13:04:34.242Z,30.25
2022-08-07T13:08:12.884Z,30.26
2022-08-07T13:10:39.212Z,30.40
2022-08-07T13:13:08.654Z,30.52
2022-08-07T13:15:46.319Z,30.65
2022-08-07T13:18:26.210Z,30.85
2022-08-07T13:21:02.746Z,30.91
2022-08-07T13:24:01.086Z,30.70
2022-08-07T13:26:46.371Z,30.80
2022-08-07T13:29:51.287Z,30.82
2022-08-07T13:32:37.599Z,30.86
2022-08-07T13:35:15.834Z,31.02
2022-08-07T13:38:25.117Z,31.03
2022-08-07T13:41:17.993Z,31.29
2022-08-07T13:43:52.743Z,31.34
2022-08-07T13:46:32.767Z,31.37
2022-08-07T13:49:03.589Z,31.54
2022-08-07T13:52:05.068Z,31.76
2022-08-07T13:54:27.496Z,31.34
2022-08-07T13:56:59.717Z,31.08
2022-08-07T13:59:31.413Z,30.87
2022-08-07T14:02:10.141Z,30.98
2022-08-07T14:05:04.742Z,31.19
2022-08-07T14:08:00.575Z,31.17
2022-08-07T14:10:42.164Z,31.24
2022-08-07T14:13:14.032Z,31.55
2022-08-07T14:15:51.798Z,31.41
2022-08-07T14:18:49.815Z,31.50
2022-08-07T14:22:03.883Z,31.80
2022-08-07T14:24:33.299Z,31.92
2022-08-07T14:28:11.657Z,31.88
2022-08-07T14:30:07.139Z,31.99
2022-08-07T14:32:46.005Z,31.74
2022-08-07T14:38:09.520Z,30.98
2022-08-07T14:40:58.907Z,30.85
2022-08-07T14:43:59.066Z,30.28
2022-08-07T14:46:18.629Z,30.28
2022-08-07T14:48:58.561Z,30.37
2022-08-07T14:51:28.032Z,30.70
2022-08-07T14:54:32.884Z,30.81
2022-08-07T14:57:05.558Z,31.09
2022-08-07T15:00:05.297Z,30.98
2022-08-07T15:02:33.161Z,31.27
2022-08-07T15:05:02.319Z,31.32
2022-08-07T15:07:50.853Z,31.14
2022-08-07T15:10:26.520Z,31.23
2022-08-07T15:13:17.996Z,31.39
2022-08-07T15:18:45.859Z,31.38
2022-08-07T15:21:58.575Z,31.22
2022-08-07T15:25:16.169Z,31.22
2022-08-07T15:27:12.068Z,31.15
2022-08-07T15:30:10.334Z,30.88
2022-08-07T15:38:29.515Z,30.81
2022-08-07T15:41:24.033Z,30.55
2022-08-07T15:44:02.786Z,30.53
2022-08-07T15:46:32.252Z,30.22
2022-08-07T15:49:14.211Z,29.87
2022-08-07T15:54:34.556Z,29.54
2022-08-07T15:57:28.030Z,29.74
2022-08-07T15:59:59.427Z,29.88
2022-08-07T16:02:35.662Z,30.06
2022-08-07T16:05:15.191Z,30.22
2022-08-07T16:08:30.621Z,30.24
2022-08-07T16:11:04.502Z,30.24
2022-08-07T16:14:09.130Z,29.97
2022-08-07T16:16:56.868Z,29.67
2022-08-07T16:19:59.681Z,29.51
2022-08-07T16:22:34.030Z,29.66
2022-08-07T16:25:10.025Z,29.34
2022-08-07T16:30:06.516Z,29.19
2022-08-07T16:31:51.394Z,29.00
2022-08-07T16:34:50.323Z,28.57
2022-08-07T16:38:03.357Z,28.44
2022-08-07T16:40:56.944Z,28.28
2022-08-07T16:44:06.280Z,28.35
2022-08-07T16:47:05.797Z,28.16
2022-08-07T16:50:20.313Z,28.00
2022-08-07T16:53:20.703Z,28.03
2022-08-07T16:56:00.133Z,27.92
2022-08-07T16:59:10.101Z,27.96
2022-08-07T17:01:53.833Z,28.09
2022-08-07T17:05:00.646Z,28.41
2022-08-07T17:07:55.710Z,28.70
2022-08-07T17:10:39.540Z,28.94
2022-08-07T17:13:41.379Z,28.99
2022-08-07T17:17:06.961Z,29.09
2022-08-07T17:20:02.544Z,29.00
2022-08-07T17:22:43.663Z,28.74
2022-08-07T17:25:15.888Z,28.89
2022-08-07T17:28:06.765Z,29.16
2022-08-07T17:30:57.974Z,29.20
2022-08-07T17:34:08.645Z,28.94
2022-08-07T17:36:26.663Z,28.92
2022-08-07T17:39:15.503Z,29.24
2022-08-07T17:42:06.819Z,29.16
2022-08-07T17:44:51.530Z,28.61
2022-08-07T17:47:42.842Z,28.33
2022-08-07T17:50:20.432Z,28.65
2022-08-07T17:52:58.969Z,28.76
2022-08-07T17:55:55.620Z,28.56
2022-08-07T17:58:46.217Z,28.16
2022-08-07T18:01:22.629Z,27.83
2022-08-07T18:04:24.570Z,27.53
2022-08-07T18:07:24.401Z,27.25
2022-08-07T18:10:05.882Z,26.68
2022-08-07T18:13:06.905Z,26.32
2022-08-07T18:15:39.474Z,25.75
2022-08-07T18:18:46.806Z,25.22
2022-08-07T18:21:40.268Z,24.77
2022-08-07T18:24:10.424Z,24.35
2022-08-07T18:27:06.449Z,24.13
2022-08-07T18:30:06.319Z,24.09
2022-08-07T18:32:52.128Z,24.05
2022-08-07T18:35:30.496Z,23.71
2022-08-07T18:38:56.382Z,23.60
2022-08-07T18:44:08.861Z,23.24
2022-08-07T18:46:59.614Z,22.96
2022-08-07T18:50:30.026Z,22.84
2022-08-07T18:52:38.825Z,22.79
2022-08-07T18:55:42.486Z,22.68
2022-08-07T18:58:38.808Z,22.50
2022-08-07T19:02:17.477Z,22.32
2022-08-07T19:04:56.113Z,22.19
2022-08-07T19:07:51.648Z,21.96
2022-08-07T19:10:29.089Z,21.93
2022-08-07T19:13:11.521Z,21.86
2022-08-07T19:16:03.178Z,21.82
2022-08-07T19:18:44.621Z,21.76
2022-08-07T19:21:44.157Z,21.58
2022-08-07T19:24:30.906Z,21.39
2022-08-07T19:28:56.655Z,21.29
2022-08-07T19:31:05.119Z,21.20
2022-08-07T19:32:47.281Z,21.10
2022-08-07T19:35:25.664Z,21.04
2022-08-07T19:38:00.081Z,21.00
2022-08-07T19:40:34.846Z,21.01
2022-08-07T19:43:08.655Z,20.92
2022-08-07T19:46:04.664Z,20.82
2022-08-07T19:48:55.886Z,20.66
2022-08-07T19:51:52.953Z,20.53
2022-08-07T19:54:31.282Z,20.42
2022-08-07T19:58:03.351Z,20.40
2022-08-07T19:59:59.471Z,20.40
2022-08-07T20:02:34.955Z,20.31
2022-08-07T20:05:08.678Z,20.21
2022-08-07T20:07:46.418Z,20.20
2022-08-07T20:10:35.846Z,20.12
2022-08-07T20:13:22.861Z,20.04
2022-08-07T20:15:52.209Z,19.97
2022-08-07T20:18:21.958Z,19.88
2022-08-07T20:21:03.163Z,19.82
2022-08-07T20:23:43.054Z,19.74
2022-08-07T20:26:15.351Z,19.71
2022-08-07T20:28:59.156Z,19.63
2022-08-07T20:31:27.929Z,19.52
2022-08-07T20:33:57.568Z,19.47
2022-08-07T20:36:27.230Z,19.38
2022-08-07T20:39:00.703Z,19.29
2022-08-07T20:41:38.054Z,19.23
2022-08-07T20:44:12.707Z,19.16
2022-08-07T20:46:44.622Z,19.11
2022-08-07T20:49:59.099Z,19.06
2022-08-07T20:52:06.592Z,19.02
2022-08-07T20:54:45.568Z,18.99
2022-08-07T20:57:28.130Z,18.90
2022-08-07T21:00:06.431Z,18.83
2022-08-07T21:03:01.613Z,18.80
2022-08-07T21:05:50.584Z,18.75
2022-08-07T21:08:36.573Z,18.67
2022-08-07T21:11:29.029Z,18.63
2022-08-07T21:14:31.714Z,18.62
2022-08-07T21:18:00.336Z,18.52
2022-08-07T21:20:05.186Z,18.43
2022-08-07T21:22:38.572Z,18.37
2022-08-07T21:25:25.579Z,18.28
2022-08-07T21:28:07.729Z,18.21
2022-08-07T21:30:49.314Z,18.17
2022-08-07T21:33:16.192Z,18.09
2022-08-07T21:36:03.900Z,17.98
2022-08-07T21:38:54.877Z,17.88
2022-08-07T21:41:52.278Z,17.82
2022-08-07T21:44:51.164Z,17.76
2022-08-07T21:47:35.949Z,17.71
2022-08-07T21:50:19.655Z,17.71
2022-08-07T21:53:05.166Z,17.68
2022-08-07T21:56:32.801Z,17.62
2022-08-07T21:59:05.158Z,17.57
2022-08-07T22:02:11.411Z,17.55
2022-08-07T22:04:37.088Z,17.48
2022-08-07T22:07:21.241Z,17.34
2022-08-07T22:09:55.264Z,17.18
2022-08-07T22:12:27.215Z,17.06
2022-08-07T22:16:39.868Z,16.93
2022-08-07T22:18:09.307Z,16.84
2022-08-07T22:20:46.800Z,16.81
2022-08-07T22:23:21.735Z,16.72
2022-08-07T22:26:20.674Z,16.60
2022-08-07T22:29:04.303Z,16.53
2022-08-07T22:32:11.252Z,16.52
2022-08-07T22:34:54.637Z,16.51
2022-08-07T22:38:02.802Z,16.51
2022-08-07T22:40:53.295Z,16.49
2022-08-07T22:43:45.578Z,16.50
2022-08-07T22:47:02.371Z,16.55
2022-08-07T22:49:42.830Z,16.55
2022-08-07T22:52:37.659Z,16.47
2022-08-07T22:55:22.698Z,16.38
2022-08-07T22:58:11.414Z,16.36
2022-08-07T23:01:06.182Z,16.24
2022-08-07T23:03:57.303Z,16.11
2022-08-07T23:07:33.585Z,15.97
2022-08-07T23:10:38.429Z,15.88
2022-08-07T23:13:19.244Z,15.76
2022-08-07T23:16:05.363Z,15.73
2022-08-07T23:19:48.010Z,15.62
2022-08-07T23:22:37.102Z,15.51
2022-08-07T23:25:16.035Z,15.44
2022-08-07T23:28:22.175Z,15.35
2022-08-07T23:31:18.827Z,15.43
2022-08-07T23:34:39.558Z,15.49
2022-08-07T23:37:37.232Z,15.49
2022-08-07T23:40:51.758Z,15.47
2022-08-07T23:43:42.269Z,15.41
2022-08-07T23:46:39.660Z,15.28
2022-08-07T23:49:49.787Z,15.16
2022-08-07T23:53:00.300Z,15.13
2022-08-07T23:55:52.987Z,15.09
2022-08-07T23:58:26.939Z,15.12
